createdAt,value
2023-04-03T00:01:43.125Z,76.58
2023-04-03T00:04:27.072Z,76.62
2023-04-03T00:07:11.299Z,76.55
2023-04-03T00:09:56.590Z,75.94
2023-04-03T00:12:40.342Z,75.85
2023-04-03T00:15:24.046Z,75.43
2023-04-03T00:18:08.753Z,75.81
2023-04-03T00:20:52.828Z,76.21
2023-04-03T00:23:36.728Z,75.57
2023-04-03T00:26:21.911Z,75.37
2023-04-03T00:29:05.627Z,75.74
2023-04-03T00:31:50.582Z,73.94
2023-04-03T00:34:34.329Z,74.16
2023-04-03T00:37:18.066Z,75.45
2023-04-03T00:40:01.840Z,75.49
2023-04-03T00:42:50.485Z,75.75
2023-04-03T00:45:38.785Z,76.27
2023-04-03T00:48:27.153Z,76.12
2023-04-03T00:51:15.153Z,75.40
2023-04-03T00:54:03.310Z,75.67
2023-04-03T00:56:47.719Z,75.01
2023-04-03T00:59:36.688Z,75.60
2023-04-03T01:02:20.400Z,75.59
2023-04-03T01:05:04.510Z,75.25
2023-04-03T01:07:49.706Z,74.79
2023-04-03T01:10:33.374Z,74.72
2023-04-03T01:13:24.586Z,75.51
2023-04-03T01:16:10.634Z,74.98
2023-04-03T01:18:54.540Z,74.10
2023-04-03T01:22:05.055Z,73.21
2023-04-03T01:24:48.901Z,73.96
2023-04-03T01:27:32.825Z,74.71
2023-04-03T01:30:19.883Z,74.25
2023-04-03T01:33:05.259Z,73.71
2023-04-03T01:35:49.909Z,73.49
2023-04-03T01:38:34.038Z,73.67
2023-04-03T01:41:18.082Z,73.36
2023-04-03T01:44:03.486Z,73.56
2023-04-03T01:46:47.511Z,73.59
2023-04-03T01:49:33.018Z,73.38
2023-04-03T01:52:16.928Z,73.36
2023-04-03T01:55:00.878Z,73.18
2023-04-03T01:57:44.787Z,72.99
2023-04-03T02:00:28.772Z,73.17
2023-04-03T02:03:12.616Z,73.34
2023-04-03T02:05:58.031Z,73.35
2023-04-03T02:08:42.728Z,73.88
2023-04-03T02:11:26.600Z,73.01
2023-04-03T02:14:10.703Z,73.23
2023-04-03T02:17:14.486Z,73.88
2023-04-03T02:19:58.425Z,74.53
2023-04-03T02:22:43.567Z,74.38
2023-04-03T02:25:27.466Z,74.82
2023-04-03T02:28:11.338Z,74.39
2023-04-03T02:30:55.086Z,74.67
2023-04-03T02:33:39.195Z,74.60
2023-04-03T02:36:25.876Z,75.18
2023-04-03T02:39:15.867Z,75.76
2023-04-03T02:42:00.089Z,77.05
2023-04-03T02:44:45.624Z,76.40
2023-04-03T02:47:29.849Z,74.56
2023-04-03T02:50:13.838Z,72.04
2023-04-03T02:52:57.804Z,70.99
2023-04-03T02:55:43.317Z,70.25
2023-04-03T02:58:27.382Z,70.16
2023-04-03T03:01:14.342Z,70.85
2023-04-03T03:03:58.173Z,70.84
2023-04-03T03:06:43.601Z,71.00
2023-04-03T03:09:28.942Z,71.04
2023-04-03T03:12:14.012Z,71.20
2023-04-03T03:14:57.778Z,71.64
2023-04-03T03:17:41.650Z,71.18
2023-04-03T03:20:25.746Z,70.85
2023-04-03T03:23:09.613Z,70.80
2023-04-03T03:25:57.614Z,70.92
2023-04-03T03:28:43.000Z,70.06
2023-04-03T03:31:29.116Z,70.01
2023-04-03T03:34:13.222Z,69.55
2023-04-03T03:36:57.261Z,70.00
2023-04-03T03:39:41.323Z,70.16
2023-04-03T03:42:25.267Z,69.97
2023-04-03T03:45:12.374Z,70.52
2023-04-03T03:47:56.414Z,70.58
2023-04-03T03:50:40.878Z,69.78
2023-04-03T03:53:24.926Z,70.13
2023-04-03T03:56:11.608Z,70.21
2023-04-03T03:58:57.648Z,70.40
2023-04-03T04:01:42.970Z,70.12
2023-04-03T04:04:26.921Z,70.30
2023-04-03T04:07:10.716Z,70.36
2023-04-03T04:09:55.007Z,70.64
2023-04-03T04:12:38.866Z,71.08
2023-04-03T04:15:24.020Z,71.66
2023-04-03T04:18:09.606Z,71.14
2023-04-03T04:20:53.663Z,70.52
2023-04-03T04:23:38.607Z,70.43
2023-04-03T04:26:23.048Z,70.20
2023-04-03T04:29:07.148Z,69.76
2023-04-03T04:31:53.158Z,69.79
2023-04-03T04:34:40.013Z,70.09
2023-04-03T04:37:24.056Z,69.33
2023-04-03T04:40:09.276Z,69.54
2023-04-03T04:42:53.292Z,70.41
2023-04-03T04:45:38.018Z,70.11
2023-04-03T04:48:22.273Z,70.56
2023-04-03T04:51:07.612Z,69.99
2023-04-03T04:53:56.061Z,69.62
2023-04-03T04:56:41.019Z,69.27
2023-04-03T04:59:24.973Z,69.05
2023-04-03T05:02:11.131Z,68.62
2023-04-03T05:04:57.298Z,68.64
2023-04-03T05:07:46.317Z,67.99
2023-04-03T05:10:30.228Z,68.39
2023-04-03T05:13:14.231Z,67.73
2023-04-03T05:15:58.868Z,67.40
2023-04-03T05:18:43.280Z,68.02
2023-04-03T05:21:34.159Z,67.46
2023-04-03T05:24:24.138Z,67.85
2023-04-03T05:27:07.964Z,67.78
2023-04-03T05:29:56.364Z,67.52
2023-04-03T05:32:41.153Z,67.07
2023-04-03T05:35:32.615Z,66.30
2023-04-03T05:38:19.062Z,66.17
2023-04-03T05:41:05.141Z,65.09
2023-04-03T05:43:49.227Z,65.63
2023-04-03T05:46:34.110Z,65.14
2023-04-03T05:49:21.379Z,64.40
2023-04-03T05:52:05.621Z,65.07
2023-04-03T05:54:50.703Z,64.21
2023-04-03T05:57:42.028Z,64.27
2023-04-03T06:00:26.418Z,63.19
2023-04-03T06:03:18.058Z,63.56
2023-04-03T06:06:05.476Z,63.39
2023-04-03T06:08:49.369Z,61.91
2023-04-03T06:11:33.138Z,61.97
2023-04-03T06:14:18.417Z,61.78
2023-04-03T06:17:02.865Z,61.35
2023-04-03T06:19:46.954Z,62.34
2023-04-03T06:22:31.927Z,62.19
2023-04-03T06:25:15.733Z,61.44
2023-04-03T06:27:59.714Z,61.86
2023-04-03T06:30:44.847Z,61.44
2023-04-03T06:33:28.574Z,61.30
2023-04-03T06:36:13.834Z,61.97
2023-04-03T06:38:58.006Z,61.99
2023-04-03T06:41:41.649Z,62.50
2023-04-03T06:44:25.619Z,62.92
2023-04-03T06:47:13.852Z,62.24
2023-04-03T06:49:57.632Z,62.95
2023-04-03T06:52:41.547Z,62.57
2023-04-03T06:55:25.362Z,62.40
2023-04-03T06:58:09.138Z,61.27
2023-04-03T07:00:52.925Z,61.07
2023-04-03T07:03:38.225Z,60.14
2023-04-03T07:06:22.125Z,60.79
2023-04-03T07:09:05.929Z,60.40
2023-04-03T07:11:49.678Z,58.94
2023-04-03T07:14:33.478Z,58.45
2023-04-03T07:17:17.410Z,58.19
2023-04-03T07:20:02.629Z,56.78
2023-04-03T07:22:49.006Z,56.20
2023-04-03T07:25:34.847Z,55.72
2023-04-03T07:28:20.388Z,56.34
2023-04-03T07:31:07.149Z,56.45
2023-04-03T07:33:51.089Z,56.91
2023-04-03T07:36:37.212Z,56.24
2023-04-03T07:39:21.338Z,56.50
2023-04-03T07:42:05.114Z,55.53
2023-04-03T07:44:49.031Z,55.48
2023-04-03T07:47:33.456Z,54.93
2023-04-03T07:50:17.723Z,53.48
2023-04-03T07:53:02.880Z,53.97
2023-04-03T07:55:48.596Z,53.87
2023-04-03T07:58:32.669Z,52.90
2023-04-03T08:01:16.500Z,54.17
2023-04-03T08:04:00.537Z,52.50
2023-04-03T08:06:46.857Z,50.55
2023-04-03T08:09:32.557Z,50.96
2023-04-03T08:12:16.521Z,50.33
2023-04-03T08:15:02.633Z,49.48
2023-04-03T08:17:47.103Z,47.42
2023-04-03T08:20:31.314Z,49.48
2023-04-03T08:23:17.611Z,49.99
2023-04-03T08:26:09.516Z,49.95
2023-04-03T08:28:53.474Z,48.28
2023-04-03T08:31:37.795Z,46.29
2023-04-03T08:34:22.358Z,45.35
2023-04-03T08:37:06.747Z,46.00
2023-04-03T08:39:51.189Z,45.74
2023-04-03T08:42:50.246Z,46.62
2023-04-03T08:45:45.299Z,47.08
2023-04-03T08:48:33.433Z,45.96
2023-04-03T08:51:19.713Z,46.34
2023-04-03T08:54:10.208Z,46.80
2023-04-03T08:56:55.186Z,46.40
2023-04-03T08:59:41.825Z,45.27
2023-04-03T09:02:35.269Z,45.01
2023-04-03T09:05:23.007Z,46.04
2023-04-03T09:08:15.036Z,46.16
2023-04-03T09:11:12.228Z,45.25
2023-04-03T09:14:02.218Z,45.91
2023-04-03T09:16:55.102Z,46.60
2023-04-03T09:19:47.140Z,45.43
2023-04-03T09:22:41.778Z,45.62
2023-04-03T09:25:32.190Z,45.31
2023-04-03T09:28:16.980Z,45.90
2023-04-03T09:31:02.589Z,46.37
2023-04-03T09:33:48.208Z,47.05
2023-04-03T09:36:42.657Z,45.58
2023-04-03T09:39:29.309Z,46.61
2023-04-03T09:42:20.665Z,45.75
2023-04-03T09:45:07.823Z,45.92
2023-04-03T09:48:08.323Z,45.97
2023-04-03T09:51:02.820Z,46.35
2023-04-03T09:53:47.191Z,45.95
2023-04-03T09:56:32.706Z,46.99
2023-04-03T09:59:18.024Z,48.07
2023-04-03T10:02:05.567Z,48.75
2023-04-03T10:04:58.714Z,50.33
2023-04-03T10:07:58.299Z,50.49
2023-04-03T10:10:50.291Z,50.47
2023-04-03T10:13:45.213Z,50.43
2023-04-03T10:16:40.441Z,50.65
2023-04-03T10:19:36.993Z,48.84
2023-04-03T10:22:33.535Z,50.29
2023-04-03T10:25:26.469Z,51.31
2023-04-03T10:28:17.331Z,51.21
2023-04-03T10:31:12.726Z,51.43
2023-04-03T10:34:07.368Z,48.81
2023-04-03T10:36:59.966Z,49.17
2023-04-03T10:39:54.135Z,49.14
2023-04-03T10:42:48.556Z,49.41
2023-04-03T10:45:48.683Z,47.66
2023-04-03T10:48:44.717Z,47.72
2023-04-03T10:51:35.759Z,46.96
2023-04-03T10:54:27.213Z,47.44
2023-04-03T10:57:14.064Z,47.85
2023-04-03T11:00:03.757Z,47.12
2023-04-03T11:02:53.673Z,48.15
2023-04-03T11:05:43.415Z,46.33
2023-04-03T11:08:34.936Z,46.85
2023-04-03T11:11:22.789Z,45.97
2023-04-03T11:14:17.299Z,46.63
2023-04-03T11:17:19.015Z,49.30
2023-04-03T11:20:09.051Z,48.79
2023-04-03T11:22:59.953Z,50.00
2023-04-03T11:25:45.895Z,48.77
2023-04-03T11:28:30.052Z,48.79
2023-04-03T11:31:44.461Z,48.37
2023-04-03T11:34:39.465Z,48.57
2023-04-03T11:37:31.030Z,50.94
2023-04-03T11:40:24.899Z,51.69
2023-04-03T11:43:23.157Z,49.95
2023-04-03T11:46:08.833Z,49.46
2023-04-03T11:49:00.116Z,49.62
2023-04-03T11:51:54.210Z,48.90
2023-04-03T11:54:54.833Z,48.41
2023-04-03T11:57:53.389Z,49.65
2023-04-03T12:00:57.501Z,48.36
2023-04-03T12:04:01.249Z,49.17
2023-04-03T12:07:06.035Z,48.35
2023-04-03T12:10:08.744Z,48.96
2023-04-03T12:13:04.489Z,49.16
2023-04-03T12:16:02.542Z,48.95
2023-04-03T12:19:03.365Z,47.84
2023-04-03T12:22:27.749Z,50.42
2023-04-03T12:25:56.039Z,49.53
2023-04-03T12:28:49.586Z,51.38
2023-04-03T12:31:49.731Z,51.55
2023-04-03T12:34:54.668Z,50.10
2023-04-03T12:38:03.057Z,49.97
2023-04-03T12:40:55.969Z,51.11
2023-04-03T12:44:05.196Z,50.22
2023-04-03T12:46:57.128Z,50.63
2023-04-03T12:49:54.203Z,50.80
2023-04-03T12:52:53.550Z,53.31
2023-04-03T12:55:44.346Z,52.54
2023-04-03T12:58:41.602Z,51.34
2023-04-03T13:01:32.356Z,53.01
2023-04-03T13:04:21.979Z,53.18
2023-04-03T13:07:25.992Z,53.68
2023-04-03T13:10:22.411Z,53.40
2023-04-03T13:13:16.100Z,51.76
2023-04-03T13:16:13.659Z,51.71
2023-04-03T13:19:05.552Z,53.83
2023-04-03T13:21:58.562Z,53.59
2023-04-03T13:24:49.030Z,54.52
2023-04-03T13:27:35.991Z,54.15
2023-04-03T13:30:29.260Z,55.52
2023-04-03T13:33:24.259Z,54.44
2023-04-03T13:36:18.153Z,54.57
2023-04-03T13:39:05.476Z,55.77
2023-04-03T13:41:51.230Z,56.22
2023-04-03T13:44:37.948Z,54.91
2023-04-03T13:47:26.396Z,54.59
2023-04-03T13:50:18.457Z,56.23
2023-04-03T13:53:11.277Z,54.38
2023-04-03T13:56:02.789Z,55.43
2023-04-03T13:58:58.101Z,56.17
2023-04-03T14:01:49.527Z,55.48
2023-04-03T14:04:48.485Z,55.61
2023-04-03T14:07:33.668Z,56.91
2023-04-03T14:10:17.929Z,56.33
2023-04-03T14:13:05.353Z,58.22
2023-04-03T14:15:52.381Z,57.34
2023-04-03T14:18:38.034Z,56.93
2023-04-03T14:21:24.454Z,60.07
2023-04-03T14:24:08.980Z,60.93
2023-04-03T14:26:55.156Z,61.04
2023-04-03T14:29:39.110Z,61.71
2023-04-03T14:32:25.010Z,61.48
2023-04-03T14:35:09.659Z,60.69
2023-04-03T14:37:56.402Z,61.26
2023-04-03T14:40:41.358Z,61.79
2023-04-03T14:43:26.288Z,60.24
2023-04-03T14:46:15.894Z,61.08
2023-04-03T14:49:00.158Z,60.85
2023-04-03T14:51:44.652Z,62.13
2023-04-03T14:54:30.597Z,61.79
2023-04-03T14:57:16.965Z,63.92
2023-04-03T15:00:01.976Z,63.31
2023-04-03T15:02:48.890Z,62.07
2023-04-03T15:05:33.037Z,63.32
2023-04-03T15:08:23.665Z,63.26
2023-04-03T15:11:09.170Z,65.28
2023-04-03T15:13:53.389Z,67.00
2023-04-03T15:16:37.470Z,68.40
2023-04-03T15:19:21.649Z,69.32
2023-04-03T15:22:05.443Z,69.74
2023-04-03T15:24:49.738Z,71.15
2023-04-03T15:27:35.168Z,71.33
2023-04-03T15:30:21.280Z,72.13
2023-04-03T15:33:05.251Z,72.71
2023-04-03T15:35:49.232Z,73.35
2023-04-03T15:38:33.465Z,74.38
2023-04-03T15:41:17.603Z,73.94
2023-04-03T15:44:02.928Z,74.01
2023-04-03T15:46:47.755Z,73.94
2023-04-03T15:49:32.145Z,74.08
2023-04-03T15:52:17.794Z,73.79
2023-04-03T15:55:01.787Z,73.29
2023-04-03T15:57:46.489Z,73.73
2023-04-03T16:00:33.045Z,74.97
2023-04-03T16:03:20.636Z,76.30
2023-04-03T16:06:04.696Z,78.21
2023-04-03T16:08:50.402Z,79.13
2023-04-03T16:11:36.105Z,80.78
2023-04-03T16:14:19.873Z,82.51
2023-04-03T16:17:05.210Z,83.45
2023-04-03T16:19:49.056Z,85.46
2023-04-03T16:22:33.081Z,85.99
2023-04-03T16:25:17.036Z,86.36
2023-04-03T16:28:01.166Z,86.37
2023-04-03T16:30:47.156Z,85.99
2023-04-03T16:33:33.355Z,85.17
2023-04-03T16:36:17.575Z,85.44
2023-04-03T16:39:01.691Z,85.54
2023-04-03T16:41:46.553Z,84.80
2023-04-03T16:44:30.956Z,83.57
2023-04-03T16:47:16.435Z,82.05
2023-04-03T16:50:02.233Z,78.68
2023-04-03T16:52:47.932Z,77.83
2023-04-03T16:55:32.836Z,76.32
2023-04-03T16:58:17.387Z,76.17
2023-04-03T17:01:10.780Z,76.76
2023-04-03T17:03:55.696Z,76.66
2023-04-03T17:06:42.251Z,76.80
2023-04-03T17:09:26.666Z,76.00
2023-04-03T17:12:11.115Z,77.18
2023-04-03T17:14:55.883Z,77.60
2023-04-03T17:17:40.208Z,80.10
2023-04-03T17:20:24.910Z,81.18
2023-04-03T17:23:10.518Z,82.49
2023-04-03T17:25:55.552Z,83.72
2023-04-03T17:28:41.141Z,84.19
2023-04-03T17:31:25.772Z,84.15
2023-04-03T17:34:12.760Z,84.95
2023-04-03T17:36:57.767Z,84.88
2023-04-03T17:39:44.018Z,84.72
2023-04-03T17:42:28.956Z,85.04
2023-04-03T17:45:13.972Z,84.01
2023-04-03T17:47:58.738Z,83.65
2023-04-03T17:50:44.139Z,83.23
2023-04-03T17:53:29.598Z,83.44
2023-04-03T17:56:18.192Z,83.38
2023-04-03T17:59:03.071Z,83.17
2023-04-03T18:01:48.528Z,83.01
2023-04-03T18:04:33.380Z,83.69
2023-04-03T18:07:17.783Z,83.29
2023-04-03T18:10:05.765Z,83.92
2023-04-03T18:12:53.851Z,86.18
2023-04-03T18:15:44.480Z,89.11
2023-04-03T18:18:29.807Z,92.06
2023-04-03T18:21:16.348Z,92.94
2023-04-03T18:24:01.452Z,93.04
2023-04-03T18:26:50.111Z,93.21
2023-04-03T18:29:40.152Z,92.79
2023-04-03T18:32:26.124Z,93.75
2023-04-03T18:35:12.460Z,94.56
2023-04-03T18:37:57.992Z,95.41
2023-04-03T18:40:45.478Z,95.74
2023-04-03T18:43:30.907Z,96.84
2023-04-03T18:46:17.712Z,96.35
2023-04-03T18:49:03.099Z,95.46
2023-04-03T18:51:48.940Z,94.93
2023-04-03T18:54:34.592Z,93.92
2023-04-03T18:57:20.500Z,93.78
2023-04-03T19:00:07.330Z,92.59
2023-04-03T19:02:54.179Z,92.30
2023-04-03T19:05:40.998Z,92.07
2023-04-03T19:08:26.839Z,91.34
2023-04-03T19:11:12.025Z,90.47
2023-04-03T19:14:04.318Z,91.01
2023-04-03T19:16:59.670Z,92.61
2023-04-03T19:19:46.412Z,93.07
2023-04-03T19:22:32.419Z,92.74
2023-04-03T19:25:17.696Z,93.67
2023-04-03T19:28:02.758Z,93.13
2023-04-03T19:30:49.102Z,93.21
2023-04-03T19:33:34.472Z,91.16
2023-04-03T19:36:21.304Z,92.34
2023-04-03T19:39:06.353Z,92.81
2023-04-03T19:41:51.215Z,94.94
2023-04-03T19:44:39.197Z,95.69
2023-04-03T19:47:23.910Z,96.43
2023-04-03T19:50:09.115Z,97.16
2023-04-03T19:52:54.789Z,96.53
2023-04-03T19:55:39.099Z,96.46
2023-04-03T19:58:23.442Z,96.15
2023-04-03T20:01:07.451Z,95.17
2023-04-03T20:03:51.933Z,94.48
2023-04-03T20:06:36.907Z,94.04
2023-04-03T20:09:22.695Z,93.62
2023-04-03T20:12:09.809Z,94.22
2023-04-03T20:14:53.951Z,94.35
2023-04-03T20:17:38.668Z,94.50
2023-04-03T20:20:23.229Z,94.42
2023-04-03T20:23:08.357Z,94.45
2023-04-03T20:26:06.556Z,95.17
2023-04-03T20:28:55.926Z,95.37
2023-04-03T20:31:40.755Z,95.40
2023-04-03T20:34:25.091Z,95.53
2023-04-03T20:37:09.253Z,95.55
2023-04-03T20:39:53.219Z,95.18
2023-04-03T20:42:38.907Z,95.62
2023-04-03T20:45:23.212Z,95.84
2023-04-03T20:48:07.420Z,95.64
2023-04-03T20:50:52.121Z,94.87
2023-04-03T20:53:36.170Z,96.37
2023-04-03T20:56:20.191Z,97.81
2023-04-03T20:59:06.062Z,98.08
2023-04-03T21:01:50.141Z,98.21
2023-04-03T21:04:39.848Z,98.61
2023-04-03T21:08:02.301Z,98.31
2023-04-03T21:11:23.949Z,98.11
2023-04-03T21:14:46.054Z,98.04
2023-04-03T21:17:29.538Z,98.16
2023-04-03T21:20:15.122Z,98.25
2023-04-03T21:22:59.005Z,98.65
2023-04-03T21:25:43.022Z,98.26
2023-04-03T21:28:27.500Z,97.61
2023-04-03T21:31:11.981Z,97.88
2023-04-03T21:33:55.752Z,97.77
2023-04-03T21:36:42.976Z,97.95
2023-04-03T21:39:27.230Z,97.99
2023-04-03T21:42:11.107Z,97.98
2023-04-03T21:44:55.056Z,98.20
2023-04-03T21:47:40.199Z,98.17
2023-04-03T21:50:24.120Z,97.86
2023-04-03T21:53:09.410Z,98.05
2023-04-03T21:55:57.377Z,98.21
2023-04-03T21:58:41.583Z,97.99
2023-04-03T22:01:25.706Z,98.06
2023-04-03T22:04:09.876Z,97.13
2023-04-03T22:06:53.755Z,96.90
2023-04-03T22:09:38.940Z,97.10
2023-04-03T22:12:23.175Z,96.64
2023-04-03T22:15:09.058Z,96.82
2023-04-03T22:17:52.978Z,96.64
2023-04-03T22:20:37.415Z,96.71
2023-04-03T22:23:21.183Z,97.00
2023-04-03T22:26:08.758Z,96.38
2023-04-03T22:28:53.044Z,96.23
2023-04-03T22:31:38.117Z,96.74
2023-04-03T22:34:24.649Z,97.04
2023-04-03T22:37:08.877Z,96.79
2023-04-03T22:39:54.002Z,97.79
2023-04-03T22:42:39.694Z,97.66
2023-04-03T22:45:23.854Z,97.23
2023-04-03T22:48:08.349Z,97.42
2023-04-03T22:50:52.859Z,97.13
2023-04-03T22:53:37.267Z,97.38
2023-04-03T22:56:23.924Z,97.31
2023-04-03T22:59:11.301Z,97.46
2023-04-03T23:01:55.635Z,96.35
2023-04-03T23:04:39.883Z,96.97
2023-04-03T23:07:24.288Z,96.88
2023-04-03T23:10:09.132Z,96.23
2023-04-03T23:12:53.108Z,96.91
2023-04-03T23:15:38.833Z,96.85
2023-04-03T23:18:23.064Z,96.31
2023-04-03T23:21:08.090Z,95.60
2023-04-03T23:23:52.101Z,95.89
2023-04-03T23:26:36.092Z,96.33
2023-04-03T23:29:19.948Z,95.52
2023-04-03T23:32:05.776Z,95.83
2023-04-03T23:34:49.623Z,96.20
2023-04-03T23:37:33.803Z,95.44
2023-04-03T23:40:17.975Z,94.75
2023-04-03T23:43:02.096Z,95.46
2023-04-03T23:45:46.928Z,96.63
2023-04-03T23:48:32.368Z,98.05
2023-04-03T23:51:16.325Z,97.88
2023-04-03T23:54:00.140Z,97.48
2023-04-03T23:56:44.085Z,97.25
2023-04-03T23:59:28.280Z,96.75
